KUKT/UKT METAR and TAF weather

Enter ICAO airport designator
Station Type Date Time Source
KUKT METAR 2022/06/27 07:55 UTC NOAA

KUKT 270755Z AUTO 20005KT 10SM FEW070 SCT100 23/19 A2997 RMK A01


Station Type Date Time Source
KUKT Decoded METAR 2022/06/27 07:55 UTC NOAA

Quakertown, Quakertown Airport, PA, United States (KUKT) 40-26-06N 075-22-54W
Jun 27, 2022 - 03:55 AM EDT / 2022.06.27 0755 UTC
Wind: from the SSW (200 degrees) at 6 MPH (5 KT):0
Visibility: 10 mile(s):0
Sky conditions: partly cloudy
Temperature: 73 F (23 C)
Dew Point: 66 F (19 C)
Relative Humidity: 78%
Pressure (altimeter): 29.97 in. Hg (1014 hPa)
ob: KUKT 270755Z AUTO 20005KT 10SM FEW070 SCT100 23/19 A2997 RMK A01
cycle: 8

Station Type Date Time Source
KUKT TAF UTC NOAA

Error!

Example: see airport list